createdAt,value
2022-09-04T00:00:21.517Z,16.67
2022-09-04T00:03:16.021Z,16.66
2022-09-04T00:05:57.507Z,16.64
2022-09-04T00:08:51.405Z,16.59
2022-09-04T00:11:47.917Z,16.55
2022-09-04T00:14:31.355Z,16.52
2022-09-04T00:17:11.437Z,16.48
2022-09-04T00:19:56.737Z,16.46
2022-09-04T00:22:44.665Z,16.47
2022-09-04T00:25:20.649Z,16.45
2022-09-04T00:28:00.497Z,16.44
2022-09-04T00:30:31.365Z,16.46
2022-09-04T00:33:11.977Z,16.50
2022-09-04T00:35:45.763Z,16.51
2022-09-04T00:38:39.109Z,16.51
2022-09-04T00:41:42.945Z,16.52
2022-09-04T00:44:33.586Z,16.47
2022-09-04T00:47:36.565Z,16.40
2022-09-04T00:50:45.869Z,16.34
2022-09-04T00:53:33.858Z,16.33
2022-09-04T00:56:37.007Z,16.24
2022-09-04T00:59:16.808Z,16.19
2022-09-04T01:01:48.201Z,16.16
2022-09-04T01:04:43.617Z,16.15
2022-09-04T01:07:37.627Z,16.17
2022-09-04T01:10:41.940Z,16.20
2022-09-04T01:13:44.331Z,16.15
2022-09-04T01:16:31.792Z,16.12
2022-09-04T01:19:15.737Z,16.09
2022-09-04T01:22:19.947Z,16.08
2022-09-04T01:25:06.147Z,16.05
2022-09-04T01:27:51.860Z,16.04
2022-09-04T01:30:23.673Z,16.06
2022-09-04T01:33:19.148Z,16.08
2022-09-04T01:36:16.846Z,16.10
2022-09-04T01:39:03.488Z,16.11
2022-09-04T01:41:39.718Z,16.11
2022-09-04T01:44:12.487Z,16.13
2022-09-04T01:46:50.608Z,16.10
2022-09-04T01:49:38.529Z,16.07
2022-09-04T01:52:46.066Z,16.03
2022-09-04T01:55:31.078Z,16.01
2022-09-04T01:58:20.209Z,15.99
2022-09-04T02:00:57.768Z,15.98
2022-09-04T02:03:49.660Z,15.94
2022-09-04T02:06:34.968Z,15.95
2022-09-04T02:09:39.147Z,15.96
2022-09-04T02:12:23.145Z,15.96
2022-09-04T02:15:14.406Z,15.96
2022-09-04T02:17:56.448Z,16.01
2022-09-04T02:20:28.518Z,16.02
2022-09-04T02:23:30.778Z,16.03
2022-09-04T02:26:10.028Z,16.01
2022-09-04T02:29:01.698Z,15.97
2022-09-04T02:32:00.821Z,15.92
2022-09-04T02:34:39.978Z,15.88
2022-09-04T02:37:16.171Z,15.87
2022-09-04T02:40:01.805Z,15.82
2022-09-04T02:42:40.558Z,15.82
2022-09-04T02:45:25.179Z,15.80
2022-09-04T02:48:08.819Z,15.79
2022-09-04T02:50:54.208Z,15.77
2022-09-04T02:53:49.288Z,15.75
2022-09-04T02:56:37.888Z,15.77
2022-09-04T02:59:41.559Z,15.73
2022-09-04T03:02:25.237Z,15.70
2022-09-04T03:05:08.035Z,15.68
2022-09-04T03:07:49.089Z,15.65
2022-09-04T03:10:23.098Z,15.63
2022-09-04T03:13:01.974Z,15.61
2022-09-04T03:15:41.487Z,15.62
2022-09-04T03:18:16.944Z,15.61
2022-09-04T03:21:01.663Z,15.61
2022-09-04T03:24:12.888Z,15.57
2022-09-04T03:26:48.709Z,15.53
2022-09-04T03:29:32.329Z,15.49
2022-09-04T03:32:28.227Z,15.48
2022-09-04T03:35:04.551Z,15.46
2022-09-04T03:37:50.139Z,15.43
2022-09-04T03:40:26.638Z,15.44
2022-09-04T03:43:18.533Z,15.43
2022-09-04T03:46:16.582Z,15.42
2022-09-04T03:49:06.829Z,15.41
2022-09-04T03:51:59.119Z,15.40
2022-09-04T03:54:40.835Z,15.39
2022-09-04T03:57:22.137Z,15.33
2022-09-04T04:00:23.410Z,15.27
2022-09-04T04:03:19.949Z,15.28
2022-09-04T04:05:57.068Z,15.28
2022-09-04T04:09:14.828Z,15.24
2022-09-04T04:11:56.467Z,15.17
2022-09-04T04:14:38.016Z,15.17
2022-09-04T04:17:48.277Z,15.17
2022-09-04T04:20:29.872Z,15.14
2022-09-04T04:23:19.238Z,15.12
2022-09-04T04:26:41.054Z,15.08
2022-09-04T04:29:26.946Z,15.09
2022-09-04T04:32:27.097Z,15.12
2022-09-04T04:35:08.986Z,15.12
2022-09-04T04:37:52.227Z,15.12
2022-09-04T04:40:28.579Z,15.12
2022-09-04T04:43:34.091Z,15.14
2022-09-04T04:46:59.872Z,15.16
2022-09-04T04:50:08.932Z,15.11
2022-09-04T04:52:57.656Z,15.12
2022-09-04T04:55:50.875Z,15.10
2022-09-04T04:58:40.127Z,15.14
2022-09-04T05:01:22.446Z,15.13
2022-09-04T05:04:30.516Z,15.09
2022-09-04T05:07:12.848Z,15.09
2022-09-04T05:10:08.019Z,15.12
2022-09-04T05:13:09.809Z,15.10
2022-09-04T05:16:07.488Z,15.07
2022-09-04T05:19:30.068Z,15.04
2022-09-04T05:22:24.818Z,15.03
2022-09-04T05:25:10.128Z,15.05
2022-09-04T05:28:02.274Z,15.11
2022-09-04T05:31:09.685Z,15.11
2022-09-04T05:34:01.493Z,15.16
2022-09-04T05:36:59.273Z,15.22
2022-09-04T05:40:03.704Z,15.27
2022-09-04T05:43:11.387Z,15.32
2022-09-04T05:46:03.219Z,15.37
2022-09-04T05:48:47.699Z,15.38
2022-09-04T05:51:27.265Z,15.44
2022-09-04T05:54:15.976Z,15.47
2022-09-04T05:57:04.701Z,15.50
2022-09-04T06:00:01.093Z,15.55
2022-09-04T06:03:00.175Z,15.59
2022-09-04T06:06:16.118Z,15.60
2022-09-04T06:08:54.789Z,15.65
2022-09-04T06:12:14.093Z,15.70
2022-09-04T06:15:24.806Z,15.78
2022-09-04T06:18:14.327Z,15.84
2022-09-04T06:21:09.068Z,15.91
2022-09-04T06:24:10.955Z,15.97
2022-09-04T06:27:12.258Z,16.03
2022-09-04T06:29:48.497Z,16.07
2022-09-04T06:32:43.067Z,16.12
2022-09-04T06:35:29.595Z,16.16
2022-09-04T06:38:27.966Z,16.20
2022-09-04T06:41:13.044Z,16.26
2022-09-04T06:43:50.678Z,16.33
2022-09-04T06:46:29.413Z,16.37
2022-09-04T06:49:26.868Z,16.40
2022-09-04T06:52:15.558Z,16.49
2022-09-04T06:55:11.429Z,16.58
2022-09-04T06:58:07.148Z,16.71
2022-09-04T07:01:03.481Z,16.87
2022-09-04T07:03:59.023Z,17.01
2022-09-04T07:06:47.468Z,17.08
2022-09-04T07:09:30.788Z,17.14
2022-09-04T07:12:19.529Z,17.28
2022-09-04T07:15:12.786Z,17.39
2022-09-04T07:17:59.532Z,17.57
2022-09-04T07:20:43.375Z,17.68
2022-09-04T07:23:45.497Z,17.80
2022-09-04T07:26:43.509Z,18.01
2022-09-04T07:29:32.617Z,18.18
2022-09-04T07:32:11.429Z,18.34
2022-09-04T07:35:25.537Z,18.48
2022-09-04T07:38:13.313Z,18.62
2022-09-04T07:41:04.167Z,18.79
2022-09-04T07:43:54.642Z,19.02
2022-09-04T07:46:47.357Z,19.13
2022-09-04T07:50:09.023Z,19.27
2022-09-04T07:53:14.397Z,19.41
2022-09-04T07:56:22.838Z,19.56
2022-09-04T07:59:13.997Z,19.64
2022-09-04T08:02:19.813Z,19.70
2022-09-04T08:05:11.265Z,19.80
2022-09-04T08:07:41.623Z,19.86
2022-09-04T08:10:33.197Z,19.95
2022-09-04T08:13:45.179Z,20.04
2022-09-04T08:16:35.028Z,20.06
2022-09-04T08:19:09.125Z,20.07
2022-09-04T08:21:44.905Z,20.12
2022-09-04T08:24:39.769Z,20.16
2022-09-04T08:27:42.952Z,20.24
2022-09-04T08:30:17.581Z,20.29
2022-09-04T08:33:10.778Z,20.33
2022-09-04T08:35:56.772Z,20.32
2022-09-04T08:39:06.905Z,20.34
2022-09-04T08:42:23.570Z,20.37
2022-09-04T08:45:27.411Z,20.39
2022-09-04T08:48:17.095Z,20.45
2022-09-04T08:51:27.016Z,20.50
2022-09-04T08:54:25.689Z,20.57
2022-09-04T08:57:30.694Z,20.65
2022-09-04T09:00:10.534Z,20.72
2022-09-04T09:02:46.723Z,20.76
2022-09-04T09:06:02.539Z,20.84
2022-09-04T09:09:07.198Z,20.95
2022-09-04T09:12:09.458Z,21.03
2022-09-04T09:15:01.098Z,21.08
2022-09-04T09:17:50.388Z,21.18
2022-09-04T09:20:56.201Z,21.30
2022-09-04T09:23:42.161Z,21.42
2022-09-04T09:26:31.498Z,21.51
2022-09-04T09:29:29.318Z,21.58
2022-09-04T09:32:36.637Z,21.65
2022-09-04T09:35:35.308Z,21.77
2022-09-04T09:38:39.815Z,21.87
2022-09-04T09:41:34.188Z,21.96
2022-09-04T09:44:22.436Z,22.05
2022-09-04T09:47:11.349Z,22.17
2022-09-04T09:50:06.653Z,22.26
2022-09-04T09:52:58.729Z,22.31
2022-09-04T09:55:47.305Z,22.40
2022-09-04T09:58:41.532Z,22.53
2022-09-04T10:01:27.535Z,22.64
2022-09-04T10:04:23.456Z,22.73
2022-09-04T10:07:32.936Z,22.82
2022-09-04T10:10:23.451Z,22.91
2022-09-04T10:13:37.046Z,22.99
2022-09-04T10:16:17.750Z,23.06
2022-09-04T10:19:18.326Z,23.08
2022-09-04T10:22:20.283Z,23.13
2022-09-04T10:25:28.958Z,23.17
2022-09-04T10:28:26.382Z,23.24
2022-09-04T10:31:15.164Z,23.30
2022-09-04T10:34:24.568Z,23.38
2022-09-04T10:37:13.707Z,23.46
2022-09-04T10:40:23.051Z,23.52
2022-09-04T10:42:56.354Z,23.59
2022-09-04T10:45:35.326Z,23.63
2022-09-04T10:48:14.316Z,23.65
2022-09-04T10:51:03.612Z,23.71
2022-09-04T10:53:58.726Z,23.77
2022-09-04T10:56:55.736Z,23.84
2022-09-04T10:59:41.597Z,23.88
2022-09-04T11:02:39.612Z,23.90
2022-09-04T11:06:03.977Z,23.97
2022-09-04T11:09:09.807Z,24.06
2022-09-04T11:11:53.566Z,24.15
2022-09-04T11:14:40.496Z,24.21
2022-09-04T11:17:10.835Z,24.27
2022-09-04T11:19:47.245Z,24.28
2022-09-04T11:22:36.191Z,24.26
2022-09-04T11:25:50.768Z,24.29
2022-09-04T11:28:47.106Z,24.30
2022-09-04T11:31:36.386Z,24.27
2022-09-04T11:34:26.593Z,24.32
2022-09-04T11:36:59.886Z,24.40
2022-09-04T11:40:01.913Z,24.38
2022-09-04T11:42:32.175Z,24.19
2022-09-04T11:45:23.794Z,23.98
2022-09-04T11:48:31.208Z,23.81
2022-09-04T11:51:42.444Z,23.76
2022-09-04T11:54:43.118Z,23.86
2022-09-04T11:57:38.146Z,23.98
2022-09-04T12:00:19.377Z,24.04
2022-09-04T12:03:21.766Z,24.08
2022-09-04T12:06:24.266Z,24.16
2022-09-04T12:09:23.358Z,24.21
2022-09-04T12:12:14.727Z,24.24
2022-09-04T12:15:17.706Z,24.27
2022-09-04T12:18:22.790Z,24.27
2022-09-04T12:21:43.949Z,24.35
2022-09-04T12:24:41.631Z,24.44
2022-09-04T12:27:31.257Z,24.47
2022-09-04T12:30:24.030Z,24.47
2022-09-04T12:33:23.600Z,24.45
2022-09-04T12:36:04.699Z,24.45
2022-09-04T12:39:07.217Z,24.49
2022-09-04T12:42:03.856Z,24.48
2022-09-04T12:45:14.986Z,24.45
2022-09-04T12:48:26.758Z,24.41
2022-09-04T12:51:24.458Z,24.33
2022-09-04T12:54:25.176Z,24.29
2022-09-04T12:57:21.622Z,24.25
2022-09-04T13:00:48.456Z,24.19
2022-09-04T13:03:32.081Z,24.07
2022-09-04T13:06:11.779Z,23.97
2022-09-04T13:09:24.403Z,23.86
2022-09-04T13:12:44.492Z,23.72
2022-09-04T13:15:20.297Z,23.59
2022-09-04T13:18:09.076Z,23.48
2022-09-04T13:20:56.600Z,23.39
2022-09-04T13:23:46.260Z,23.31
2022-09-04T13:26:30.078Z,23.26
2022-09-04T13:29:17.470Z,23.23
2022-09-04T13:32:00.873Z,23.19
2022-09-04T13:35:00.765Z,23.13
2022-09-04T13:37:45.656Z,23.07
2022-09-04T13:40:43.046Z,22.99
2022-09-04T13:43:39.026Z,22.93
2022-09-04T13:46:31.715Z,22.86
2022-09-04T13:49:08.059Z,22.78
2022-09-04T13:51:46.428Z,22.73
2022-09-04T13:54:31.297Z,22.69
2022-09-04T13:57:23.179Z,22.66
2022-09-04T13:59:55.859Z,22.61
2022-09-04T14:02:32.347Z,22.55
2022-09-04T14:05:18.689Z,22.48
2022-09-04T14:07:53.389Z,22.41
2022-09-04T14:10:48.759Z,22.35
2022-09-04T14:13:36.149Z,22.31
2022-09-04T14:16:12.046Z,22.26
2022-09-04T14:18:45.243Z,22.22
2022-09-04T14:21:35.275Z,22.18
2022-09-04T14:24:22.676Z,22.13
2022-09-04T14:27:16.056Z,22.08
2022-09-04T14:30:16.515Z,22.04
2022-09-04T14:33:08.718Z,21.98
2022-09-04T14:36:10.529Z,21.92
2022-09-04T14:38:48.161Z,21.89
2022-09-04T14:41:56.178Z,21.86
2022-09-04T14:44:54.328Z,21.84
2022-09-04T14:47:27.064Z,21.79
2022-09-04T14:50:01.767Z,21.73
2022-09-04T14:52:40.158Z,21.67
2022-09-04T14:55:19.655Z,21.64
2022-09-04T14:57:56.041Z,21.62
2022-09-04T15:00:26.891Z,21.60
2022-09-04T15:03:19.259Z,21.56
2022-09-04T15:06:08.604Z,21.52
2022-09-04T15:08:40.831Z,21.48
2022-09-04T15:11:14.360Z,21.47
2022-09-04T15:14:00.159Z,21.46
2022-09-04T15:16:43.307Z,21.44
2022-09-04T15:20:01.208Z,21.42
2022-09-04T15:22:49.312Z,21.39
2022-09-04T15:25:19.786Z,21.36
2022-09-04T15:28:01.562Z,21.34
2022-09-04T15:30:41.502Z,21.30
2022-09-04T15:33:20.411Z,21.26
2022-09-04T15:36:08.137Z,21.25
2022-09-04T15:38:39.518Z,21.20
2022-09-04T15:41:28.759Z,21.17
2022-09-04T15:44:41.610Z,21.15
2022-09-04T15:47:41.341Z,21.13
2022-09-04T15:50:27.716Z,21.08
2022-09-04T15:53:28.001Z,21.05
2022-09-04T15:56:32.648Z,21.02
2022-09-04T15:59:07.797Z,20.98
2022-09-04T16:02:13.483Z,20.93
2022-09-04T16:05:03.730Z,20.89
2022-09-04T16:07:54.564Z,20.84
2022-09-04T16:10:30.381Z,20.81
2022-09-04T16:13:28.587Z,20.78
2022-09-04T16:16:04.578Z,20.75
2022-09-04T16:18:45.758Z,20.74
2022-09-04T16:21:41.828Z,20.71
2022-09-04T16:24:36.587Z,20.67
2022-09-04T16:27:15.295Z,20.64
2022-09-04T16:29:57.691Z,20.64
2022-09-04T16:32:35.696Z,20.60
2022-09-04T16:35:22.243Z,20.59
2022-09-04T16:38:00.472Z,20.58
2022-09-04T16:40:56.709Z,20.56
2022-09-04T16:43:34.564Z,20.51
2022-09-04T16:46:28.664Z,20.48
2022-09-04T16:49:08.851Z,20.46
2022-09-04T16:51:46.308Z,20.42
2022-09-04T16:54:19.866Z,20.40
2022-09-04T16:57:12.123Z,20.36
2022-09-04T17:00:04.244Z,20.30
2022-09-04T17:02:53.904Z,20.24
2022-09-04T17:05:49.878Z,20.17
2022-09-04T17:08:34.256Z,20.12
2022-09-04T17:11:16.758Z,20.07
2022-09-04T17:13:55.808Z,20.04
2022-09-04T17:16:41.609Z,20.01
2022-09-04T17:19:16.438Z,19.97
2022-09-04T17:28:56.902Z,19.95
2022-09-04T17:29:11.052Z,19.91
2022-09-04T17:29:12.476Z,19.86
2022-09-04T17:31:18.454Z,19.83
2022-09-04T17:40:33.343Z,19.79
2022-09-04T17:40:41.634Z,19.76
2022-09-04T17:40:53.291Z,19.73
2022-09-04T17:44:02.656Z,19.69
2022-09-04T17:46:39.458Z,19.65
2022-09-04T17:49:21.677Z,19.63
2022-09-04T17:52:09.203Z,19.60
2022-09-04T17:54:49.118Z,19.58
2022-09-04T17:57:32.202Z,19.54
2022-09-04T18:00:20.683Z,19.48
2022-09-04T18:03:07.207Z,19.44
2022-09-04T18:05:53.070Z,19.40
2022-09-04T18:08:57.578Z,19.35
2022-09-04T18:11:32.787Z,19.30
2022-09-04T18:14:09.676Z,19.24
2022-09-04T18:16:42.442Z,19.20
2022-09-04T18:19:34.389Z,19.14
2022-09-04T18:22:42.546Z,19.10
2022-09-04T18:25:24.576Z,19.05
2022-09-04T18:28:18.207Z,19.00
2022-09-04T18:37:09.139Z,18.95
2022-09-04T18:37:26.723Z,18.87
2022-09-04T18:37:55.544Z,18.80
2022-09-04T18:42:39.750Z,18.74
2022-09-04T18:50:28.302Z,18.69
2022-09-04T18:50:39.641Z,18.65
2022-09-04T18:51:04.356Z,18.61
2022-09-04T18:52:30.527Z,18.57
2022-09-04T18:55:11.648Z,18.54
2022-09-04T18:57:52.578Z,18.48
2022-09-04T19:00:37.291Z,18.43
2022-09-04T19:03:35.297Z,18.39
2022-09-04T19:06:14.019Z,18.32
2022-09-04T19:08:52.028Z,18.26
2022-09-04T19:11:50.006Z,18.20
2022-09-04T19:14:26.045Z,18.12
2022-09-04T19:17:02.525Z,18.07
2022-09-04T19:20:07.176Z,18.01
2022-09-04T19:22:50.817Z,17.94
2022-09-04T19:25:36.126Z,17.89
2022-09-04T19:28:26.621Z,17.82
2022-09-04T19:31:02.203Z,17.74
2022-09-04T19:33:57.750Z,17.67
2022-09-04T19:36:47.527Z,17.63
2022-09-04T19:44:44.517Z,17.56
2022-09-04T19:46:03.816Z,17.45
2022-09-04T19:46:18.374Z,17.40
2022-09-04T19:48:40.202Z,17.35
2022-09-04T19:53:32.086Z,17.27
2022-09-04T19:54:38.225Z,17.17
2022-09-04T19:57:35.337Z,17.11
2022-09-04T20:00:43.239Z,17.07
2022-09-04T20:03:09.427Z,17.03
2022-09-04T20:05:41.609Z,16.99
2022-09-04T20:08:14.857Z,16.96
2022-09-04T20:11:03.298Z,16.94
2022-09-04T20:13:46.101Z,16.88
2022-09-04T20:16:23.323Z,16.83
2022-09-04T20:19:11.797Z,16.79
2022-09-04T20:22:29.667Z,16.76
2022-09-04T20:25:25.310Z,16.73
2022-09-04T20:28:16.957Z,16.70
2022-09-04T20:31:02.978Z,16.66
2022-09-04T20:33:59.068Z,16.62
2022-09-04T20:36:36.019Z,16.59
2022-09-04T20:39:14.650Z,16.57
2022-09-04T20:42:00.940Z,16.53
2022-09-04T20:44:52.474Z,16.50
2022-09-04T20:52:52.042Z,16.44
2022-09-04T20:52:58.062Z,16.46
2022-09-04T20:54:15.107Z,16.42
2022-09-04T21:00:34.806Z,16.40
2022-09-04T21:03:07.336Z,16.37
2022-09-04T21:03:35.420Z,16.33
2022-09-04T21:06:34.842Z,16.31
2022-09-04T21:09:36.532Z,16.26
2022-09-04T21:12:22.318Z,16.21
2022-09-04T21:15:18.966Z,16.17
2022-09-04T21:18:01.378Z,16.14
2022-09-04T21:20:55.103Z,16.12
2022-09-04T21:23:37.135Z,16.10
2022-09-04T21:26:26.438Z,16.09
2022-09-04T21:29:11.581Z,16.07
2022-09-04T21:31:50.413Z,16.05
2022-09-04T21:34:50.179Z,16.02
2022-09-04T21:37:26.129Z,15.99
2022-09-04T21:40:49.713Z,15.96
2022-09-04T21:43:36.002Z,15.94
2022-09-04T21:46:34.907Z,15.92
2022-09-04T21:49:56.459Z,15.88
2022-09-04T21:52:55.931Z,15.84
2022-09-04T22:00:25.415Z,15.81
2022-09-04T22:02:36.258Z,15.77
2022-09-04T22:02:37.798Z,15.73
2022-09-04T22:04:44.453Z,15.70
2022-09-04T22:12:13.057Z,15.67
2022-09-04T22:13:30.398Z,15.64
2022-09-04T22:13:53.495Z,15.61
2022-09-04T22:17:07.068Z,15.59
2022-09-04T22:19:49.568Z,15.56
2022-09-04T22:22:58.557Z,15.54
2022-09-04T22:25:53.319Z,15.51
2022-09-04T22:28:53.935Z,15.48
2022-09-04T22:31:24.830Z,15.43
2022-09-04T22:34:27.882Z,15.41
2022-09-04T22:37:22.770Z,15.38
2022-09-04T22:40:03.430Z,15.35
2022-09-04T22:42:44.047Z,15.32
2022-09-04T22:45:36.528Z,15.28
2022-09-04T22:49:11.914Z,15.24
2022-09-04T22:52:10.211Z,15.19
2022-09-04T22:55:38.496Z,15.15
2022-09-04T22:58:43.677Z,15.12
2022-09-04T23:01:43.094Z,15.08
2022-09-04T23:04:45.520Z,15.05
2022-09-04T23:11:18.550Z,15.01
2022-09-04T23:13:56.778Z,14.97
2022-09-04T23:14:09.442Z,14.94
2022-09-04T23:17:00.197Z,14.91
2022-09-04T23:26:37.993Z,14.89
2022-09-04T23:26:53.271Z,14.86
2022-09-04T23:27:00.796Z,14.82
2022-09-04T23:30:04.901Z,14.79
2022-09-04T23:33:13.478Z,14.72
2022-09-04T23:36:11.690Z,14.65
2022-09-04T23:39:32.899Z,14.60
2022-09-04T23:42:44.000Z,14.54
2022-09-04T23:46:00.994Z,14.46
2022-09-04T23:49:34.881Z,14.42
2022-09-04T23:53:00.523Z,14.38
